X  Zatvori METAR podaci zračne luke     EDDM Munich Airport
Temperatura
19°C Temperatura
10°C Točka rosišta
56% Vlaga



Vjetar
3 M/S
7 MPS
11 KM/S
6 Čvorovi



250°
ZJZ
Trenutna situacija

Djelimično oblačno Djelimično oblačno
Tlak zraka 1011.85 (hPa) - 29.88 (inHg)
Vidljivost 6 (milje) - 9.7 (km)
Zračna luka
Kôd zračne luke EDDM

Lokacija: Munich Airport
Udaljenost: 73 (km)

Metar:
EDDM 191120Z AUTO 25006KT 220V300 9999 FEW038 19/10 Q1012 NOSIG

Vrijeme: 19-05-2024 11:20 CEST